Time;durP1;ratioP1;P1;durP2;ratioP2;P2;SDS_P1;SDS_P2;PMS_P1;PMS_P2;Temp;Humidity;BMP_temperature;BMP_pressure;BME280_temperature;BME280_humidity;BME280_pressure;Samples;Min_cycle;Max_cycle;Signal;HPM_P1;HPM_P2
2023/06/02 00:02:08;;;;;;;11.77;5.07;;;;;;;;;;5075287;28;20310;-70
2023/06/02 00:04:37;;;;;;;16.23;4.87;;;;;;;;;;5093220;28;20710;-72
2023/06/02 00:07:03;;;;;;;12.30;4.20;;;;;;;;;;5075247;28;20184;-70
2023/06/02 00:09:29;;;;;;;6.83;4.33;;;;;;;;;;5075431;28;20650;-70
2023/06/02 00:11:55;;;;;;;9.13;4.60;;;;;;;;;;5075168;28;20258;-70
2023/06/02 00:14:21;;;;;;;8.80;4.30;;;;;;;;;;5075520;28;20204;-70
2023/06/02 00:16:47;;;;;;;11.13;4.27;;;;;;;;;;5093477;28;20197;-70
2023/06/02 00:19:14;;;;;;;10.47;4.50;;;;;;;;;;5093807;28;20259;-70
2023/06/02 00:21:41;;;;;;;13.37;4.27;;;;;;;;;;5075756;28;20268;-71
2023/06/02 00:24:07;;;;;;;8.67;4.07;;;;;;;;;;5075706;28;20228;-70
2023/06/02 00:26:33;;;;;;;8.70;4.13;;;;;;;;;;5075697;28;20540;-70
2023/06/02 00:28:59;;;;;;;6.43;5.20;;;;;;;;;;5094819;28;20181;-70
2023/06/02 00:31:25;;;;;;;9.07;5.00;;;;;;;;;;5093898;28;20178;-70
2023/06/02 00:33:51;;;;;;;9.10;4.40;;;;;;;;;;5074943;28;20204;-70
2023/06/02 00:36:17;;;;;;;9.77;4.97;;;;;;;;;;5093238;28;20268;-70
2023/06/02 00:38:43;;;;;;;8.00;4.70;;;;;;;;;;5075091;28;20177;-70
2023/06/02 00:41:09;;;;;;;9.57;4.70;;;;;;;;;;5074880;28;20639;-70
2023/06/02 00:43:35;;;;;;;8.87;4.40;;;;;;;;;;5074780;28;20272;-70
2023/06/02 00:46:01;;;;;;;8.13;4.30;;;;;;;;;;5074830;28;20273;-70
2023/06/02 00:48:27;;;;;;;6.73;4.10;;;;;;;;;;5074724;28;20326;-70
2023/06/02 00:50:53;;;;;;;11.27;4.50;;;;;;;;;;5074695;28;20215;-71
2023/06/02 00:53:19;;;;;;;5.63;4.00;;;;;;;;;;5093119;28;20185;-70
2023/06/02 00:55:45;;;;;;;10.83;4.63;;;;;;;;;;5074554;28;20201;-70
2023/06/02 00:58:13;;;;;;;8.93;4.33;;;;;;;;;;5074612;28;20173;-70
2023/06/02 01:00:40;;;;;;;9.33;4.23;;;;;;;;;;5074593;28;20226;-70
2023/06/02 01:03:07;;;;;;;9.00;4.50;;;;;;;;;;5074485;28;20562;-71
2023/06/02 01:05:33;;;;;;;11.43;4.27;;;;;;;;;;5092909;28;20193;-70
2023/06/02 01:08:01;;;;;;;8.63;4.33;;;;;;;;;;5092823;28;20631;-70
2023/06/02 01:10:28;;;;;;;13.60;4.73;;;;;;;;;;5092887;28;20173;-70
2023/06/02 01:12:54;;;;;;;8.87;4.00;;;;;;;;;;5096399;28;20188;-70
2023/06/02 01:15:20;;;;;;;16.03;5.47;;;;;;;;;;5077919;28;20231;-70
2023/06/02 01:17:46;;;;;;;12.47;4.63;;;;;;;;;;5077910;28;20177;-70
2023/06/02 01:20:14;;;;;;;13.77;5.60;;;;;;;;;;5077981;28;20234;-70
2023/06/02 01:22:46;;;;;;;10.00;5.20;;;;;;;;;;5096035;28;20169;-70
2023/06/02 01:25:22;;;;;;;12.47;5.37;;;;;;;;;;5096285;28;20288;-70
2023/06/02 01:27:48;;;;;;;12.93;5.20;;;;;;;;;;5096007;28;20726;-70
2023/06/02 01:30:14;;;;;;;13.03;4.80;;;;;;;;;;5077800;28;20213;-70
2023/06/02 01:32:43;;;;;;;15.57;5.70;;;;;;;;;;5096159;28;20656;-70
2023/06/02 01:35:10;;;;;;;9.27;5.87;;;;;;;;;;5077401;28;20678;-70
2023/06/02 01:37:40;;;;;;;13.90;5.70;;;;;;;;;;5077854;28;20334;-69
2023/06/02 01:40:07;;;;;;;8.30;5.23;;;;;;;;;;5095867;28;20204;-70
2023/06/02 01:42:34;;;;;;;13.80;4.87;;;;;;;;;;5077329;28;20180;-70
2023/06/02 01:45:01;;;;;;;14.53;5.00;;;;;;;;;;5095553;28;20275;-70
2023/06/02 01:47:27;;;;;;;9.93;5.43;;;;;;;;;;5095426;28;20174;-70
2023/06/02 01:49:53;;;;;;;8.90;6.80;;;;;;;;;;5095453;28;20181;-70
2023/06/02 01:52:19;;;;;;;11.70;6.30;;;;;;;;;;5077237;28;20546;-70
2023/06/02 01:54:46;;;;;;;10.07;5.30;;;;;;;;;;5077291;28;20196;-70
2023/06/02 01:57:12;;;;;;;14.63;5.13;;;;;;;;;;5077215;28;20215;-70
2023/06/02 01:59:38;;;;;;;11.57;5.50;;;;;;;;;;5095242;28;20248;-70
2023/06/02 02:02:05;;;;;;;10.03;4.77;;;;;;;;;;5076932;28;20177;-70
2023/06/02 02:04:31;;;;;;;13.10;4.40;;;;;;;;;;5095194;28;20249;-70
2023/06/02 02:06:57;;;;;;;9.83;4.67;;;;;;;;;;5077056;28;20185;-69
2023/06/02 02:09:23;;;;;;;8.57;4.47;;;;;;;;;;5076921;28;20211;-70
2023/06/02 02:11:49;;;;;;;15.93;4.40;;;;;;;;;;5095074;28;20553;-70
2023/06/02 02:14:15;;;;;;;13.47;4.60;;;;;;;;;;5076831;28;20204;-70
2023/06/02 02:16:45;;;;;;;10.17;4.47;;;;;;;;;;5076668;28;20204;-70
2023/06/02 02:19:16;;;;;;;11.17;4.33;;;;;;;;;;5076904;28;20185;-70
2023/06/02 02:21:42;;;;;;;10.93;4.40;;;;;;;;;;5094847;28;20331;-70
2023/06/02 02:24:08;;;;;;;9.63;4.43;;;;;;;;;;5094832;28;20197;-70
2023/06/02 02:26:35;;;;;;;13.30;5.17;;;;;;;;;;5095055;28;20180;-69
2023/06/02 02:29:01;;;;;;;13.00;4.63;;;;;;;;;;5095026;28;20177;-70
2023/06/02 02:31:27;;;;;;;10.17;4.80;;;;;;;;;;5094780;28;20209;-70
2023/06/02 02:33:53;;;;;;;14.73;5.23;;;;;;;;;;5094432;28;20586;-70
2023/06/02 02:36:19;;;;;;;13.63;5.60;;;;;;;;;;5094867;28;20272;-70
2023/06/02 02:38:47;;;;;;;19.10;5.80;;;;;;;;;;5076363;28;20180;-71
2023/06/02 02:41:13;;;;;;;10.83;5.23;;;;;;;;;;5094458;28;20733;-70
2023/06/02 02:43:38;;;;;;;11.03;4.20;;;;;;;;;;5094351;28;20257;-70
2023/06/02 02:46:04;;;;;;;9.17;3.97;;;;;;;;;;5076133;28;20561;-70
2023/06/02 02:48:30;;;;;;;12.20;4.50;;;;;;;;;;5094352;28;20173;-70
2023/06/02 02:50:56;;;;;;;13.67;4.90;;;;;;;;;;5094566;28;20607;-70
2023/06/02 02:53:23;;;;;;;12.67;4.20;;;;;;;;;;5076086;28;20242;-70
2023/06/02 02:55:51;;;;;;;16.80;4.67;;;;;;;;;;5094058;28;20201;-70
2023/06/02 02:58:18;;;;;;;13.03;5.10;;;;;;;;;;5076023;28;20268;-70
2023/06/02 03:00:45;;;;;;;15.93;4.80;;;;;;;;;;5075867;28;20577;-69
2023/06/02 03:03:12;;;;;;;16.07;5.50;;;;;;;;;;5075921;28;20181;-70
2023/06/02 03:05:41;;;;;;;11.10;5.03;;;;;;;;;;5075830;28;20269;-70
2023/06/02 03:08:09;;;;;;;12.50;4.60;;;;;;;;;;5075769;28;20218;-70
2023/06/02 03:10:35;;;;;;;12.87;4.23;;;;;;;;;;5093993;28;20547;-70
2023/06/02 03:13:01;;;;;;;12.13;5.07;;;;;;;;;;5094088;28;20177;-70
2023/06/02 03:15:27;;;;;;;14.13;4.70;;;;;;;;;;5075559;28;20209;-70
2023/06/02 03:17:55;;;;;;;18.07;4.90;;;;;;;;;;5075727;28;20528;-70
2023/06/02 03:20:22;;;;;;;8.70;3.87;;;;;;;;;;5093831;28;20173;-70
2023/06/02 03:22:48;;;;;;;16.47;4.63;;;;;;;;;;5093816;28;20221;-70
2023/06/02 03:25:14;;;;;;;14.67;4.60;;;;;;;;;;5093595;28;20193;-69
2023/06/02 03:27:40;;;;;;;16.73;4.87;;;;;;;;;;5075545;28;20188;-70
2023/06/02 03:30:06;;;;;;;11.13;4.33;;;;;;;;;;5075452;28;20268;-69
2023/06/02 03:32:32;;;;;;;21.47;5.73;;;;;;;;;;5075406;28;20185;-70
2023/06/02 03:34:58;;;;;;;24.53;5.43;;;;;;;;;;5074464;28;20266;-70
2023/06/02 03:37:24;;;;;;;15.20;4.60;;;;;;;;;;5093498;28;20278;-70
2023/06/02 03:39:50;;;;;;;13.37;5.20;;;;;;;;;;5094067;28;20199;-70
2023/06/02 03:42:16;;;;;;;12.87;4.07;;;;;;;;;;5075773;28;20204;-70
2023/06/02 03:44:42;;;;;;;17.67;5.00;;;;;;;;;;5075525;28;20204;-70
2023/06/02 03:47:08;;;;;;;16.93;4.73;;;;;;;;;;5075311;28;20275;-70
2023/06/02 03:49:36;;;;;;;13.23;4.37;;;;;;;;;;5075274;28;20212;-70
2023/06/02 03:52:02;;;;;;;14.77;4.83;;;;;;;;;;5093628;28;20541;-70
2023/06/02 03:54:28;;;;;;;10.37;4.33;;;;;;;;;;5093365;28;20201;-70
2023/06/02 03:56:54;;;;;;;10.47;4.50;;;;;;;;;;5093158;28;20611;-69
2023/06/02 03:59:20;;;;;;;12.43;4.73;;;;;;;;;;5075052;28;20655;-70
2023/06/02 04:01:46;;;;;;;12.20;4.87;;;;;;;;;;5075059;28;20256;-70
2023/06/02 04:04:12;;;;;;;11.43;3.93;;;;;;;;;;5075130;28;20666;-70
2023/06/02 04:06:40;;;;;;;13.73;5.03;;;;;;;;;;5075273;28;20184;-70
2023/06/02 04:09:07;;;;;;;16.23;4.70;;;;;;;;;;5075081;28;20188;-70
2023/06/02 04:11:33;;;;;;;12.13;5.13;;;;;;;;;;5093247;28;20595;-70
2023/06/02 04:13:59;;;;;;;16.23;4.20;;;;;;;;;;5074931;28;20205;-70
2023/06/02 04:16:25;;;;;;;15.37;4.60;;;;;;;;;;5093072;28;20193;-70
2023/06/02 04:18:51;;;;;;;13.43;5.03;;;;;;;;;;5075189;28;20176;-70
2023/06/02 04:21:16;;;;;;;10.97;4.60;;;;;;;;;;5093142;28;20634;-70
2023/06/02 04:23:42;;;;;;;10.90;4.30;;;;;;;;;;5074792;28;20624;-69
2023/06/02 04:26:08;;;;;;;10.77;4.80;;;;;;;;;;5092981;28;20669;-70
2023/06/02 04:28:35;;;;;;;15.43;5.57;;;;;;;;;;5074854;28;20677;-70
2023/06/02 04:31:02;;;;;;;18.13;5.60;;;;;;;;;;5074769;28;20188;-70
2023/06/02 04:33:28;;;;;;;12.57;5.10;;;;;;;;;;5093088;28;20177;-69
2023/06/02 04:35:55;;;;;;;18.33;5.73;;;;;;;;;;5093557;28;20224;-70
2023/06/02 04:38:20;;;;;;;11.43;5.03;;;;;;;;;;5074810;28;20182;-70
2023/06/02 04:40:47;;;;;;;15.13;5.57;;;;;;;;;;5074682;28;20181;-70
2023/06/02 04:43:13;;;;;;;15.30;5.30;;;;;;;;;;5093150;28;20180;-70
2023/06/02 04:45:43;;;;;;;11.17;5.33;;;;;;;;;;5076516;28;20228;-70
2023/06/02 04:48:09;;;;;;;16.57;5.80;;;;;;;;;;5078561;28;20647;-70
2023/06/02 04:50:35;;;;;;;17.00;4.90;;;;;;;;;;5096978;28;20259;-69
2023/06/02 04:53:01;;;;;;;15.63;6.23;;;;;;;;;;5096717;28;20216;-69
2023/06/02 04:55:27;;;;;;;14.80;5.83;;;;;;;;;;5096650;28;20193;-69
2023/06/02 04:57:53;;;;;;;12.63;5.80;;;;;;;;;;5078123;28;20185;-70
2023/06/02 05:00:19;;;;;;;15.37;5.70;;;;;;;;;;5078299;28;20534;-70
2023/06/02 05:02:48;;;;;;;15.37;6.80;;;;;;;;;;5096523;28;20173;-70
2023/06/02 05:05:14;;;;;;;18.40;7.00;;;;;;;;;;5078056;28;20667;-70
2023/06/02 05:07:40;;;;;;;17.63;6.13;;;;;;;;;;5096288;28;20173;-70
2023/06/02 05:10:06;;;;;;;15.20;6.53;;;;;;;;;;5096364;28;20226;-70
2023/06/02 05:12:32;;;;;;;20.97;6.47;;;;;;;;;;5078056;28;20258;-70
2023/06/02 05:14:58;;;;;;;19.27;8.63;;;;;;;;;;5096154;28;20226;-70
2023/06/02 05:17:27;;;;;;;18.03;6.67;;;;;;;;;;5077815;28;20197;-70
2023/06/02 05:19:54;;;;;;;14.43;6.40;;;;;;;;;;5077988;28;20205;-70
2023/06/02 05:22:20;;;;;;;15.17;5.70;;;;;;;;;;5096000;28;20291;-70
2023/06/02 05:24:46;;;;;;;13.93;6.47;;;;;;;;;;5077829;28;20197;-70
2023/06/02 05:27:12;;;;;;;12.87;6.50;;;;;;;;;;5095937;28;20556;-70
2023/06/02 05:29:38;;;;;;;17.53;6.67;;;;;;;;;;5077752;28;20184;-70
2023/06/02 05:32:06;;;;;;;12.40;5.23;;;;;;;;;;5077677;28;20646;-70
2023/06/02 05:34:32;;;;;;;17.00;5.00;;;;;;;;;;5095875;28;20266;-70
2023/06/02 05:36:58;;;;;;;10.80;4.90;;;;;;;;;;5096024;28;20201;-70
2023/06/02 05:39:24;;;;;;;16.67;5.97;;;;;;;;;;5095952;28;20212;-70
2023/06/02 05:41:50;;;;;;;11.23;5.17;;;;;;;;;;5095852;28;20177;-70
2023/06/02 05:44:16;;;;;;;9.80;4.37;;;;;;;;;;5077519;28;20212;-70
2023/06/02 05:46:42;;;;;;;19.67;4.93;;;;;;;;;;5077441;28;20272;-70
2023/06/02 05:49:08;;;;;;;14.03;5.20;;;;;;;;;;5095624;28;20271;-70
2023/06/02 05:51:34;;;;;;;9.43;4.30;;;;;;;;;;5077375;28;20714;-70
2023/06/02 05:54:00;;;;;;;13.47;4.43;;;;;;;;;;5077240;28;20689;-70
2023/06/02 05:56:26;;;;;;;14.07;4.67;;;;;;;;;;5076422;28;20212;-70
2023/06/02 05:58:52;;;;;;;14.80;5.40;;;;;;;;;;5095920;28;20177;-70
2023/06/02 06:01:18;;;;;;;14.90;4.80;;;;;;;;;;5095307;28;20173;-70
2023/06/02 06:03:44;;;;;;;11.83;4.80;;;;;;;;;;5077302;28;20188;-70
2023/06/02 06:06:10;;;;;;;14.23;5.83;;;;;;;;;;5095258;28;20177;-70
2023/06/02 06:08:36;;;;;;;15.40;5.70;;;;;;;;;;5077072;28;20181;-70
2023/06/02 06:11:03;;;;;;;11.80;5.07;;;;;;;;;;5076908;28;20185;-70
2023/06/02 06:13:28;;;;;;;15.93;4.97;;;;;;;;;;5077659;28;20216;-69
2023/06/02 06:15:54;;;;;;;12.83;5.27;;;;;;;;;;5094923;28;20236;-70
2023/06/02 06:18:20;;;;;;;18.07;5.40;;;;;;;;;;5076927;28;20604;-70
2023/06/02 06:20:46;;;;;;;16.13;6.13;;;;;;;;;;5095719;28;20173;-70
2023/06/02 06:23:15;;;;;;;19.03;6.63;;;;;;;;;;5076832;28;20321;-70
2023/06/02 06:25:41;;;;;;;17.07;6.33;;;;;;;;;;5095140;28;20242;-70
2023/06/02 06:28:07;;;;;;;11.77;5.60;;;;;;;;;;5095824;28;20188;-70
2023/06/02 06:30:33;;;;;;;13.40;6.43;;;;;;;;;;5095364;28;20260;-70
2023/06/02 06:32:59;;;;;;;15.97;5.70;;;;;;;;;;5077160;28;20192;-70
2023/06/02 06:35:26;;;;;;;17.07;6.60;;;;;;;;;;5077000;28;20216;-69
2023/06/02 06:37:52;;;;;;;12.83;5.83;;;;;;;;;;5095170;28;20208;-70
2023/06/02 06:40:18;;;;;;;18.80;6.87;;;;;;;;;;5094978;28;20261;-70
2023/06/02 06:42:44;;;;;;;15.17;6.03;;;;;;;;;;5076410;28;20188;-70
2023/06/02 06:45:10;;;;;;;11.53;6.00;;;;;;;;;;5094605;28;20200;-70
2023/06/02 06:47:36;;;;;;;17.10;7.10;;;;;;;;;;5094414;28;20177;-70
2023/06/02 06:50:02;;;;;;;16.80;6.40;;;;;;;;;;5076221;28;20684;-70
2023/06/02 06:52:28;;;;;;;15.17;6.80;;;;;;;;;;5076187;28;20291;-70
2023/06/02 06:54:54;;;;;;;17.00;6.20;;;;;;;;;;5094513;28;20624;-70
2023/06/02 06:57:20;;;;;;;16.23;6.03;;;;;;;;;;5076238;28;20662;-70
2023/06/02 06:59:47;;;;;;;16.53;5.23;;;;;;;;;;5094228;28;20647;-70
2023/06/02 07:02:13;;;;;;;13.57;6.23;;;;;;;;;;5076019;28;20246;-70
2023/06/02 07:04:39;;;;;;;15.00;6.67;;;;;;;;;;5094598;28;20646;-69
2023/06/02 07:07:05;;;;;;;14.73;5.80;;;;;;;;;;5094327;28;20542;-70
2023/06/02 07:09:31;;;;;;;11.67;6.73;;;;;;;;;;5075830;28;20200;-70
2023/06/02 07:11:57;;;;;;;21.40;9.10;;;;;;;;;;5093919;28;20189;-70
2023/06/02 07:14:24;;;;;;;17.10;8.03;;;;;;;;;;5075728;28;20207;-70
2023/06/02 07:16:54;;;;;;;15.20;8.10;;;;;;;;;;5094125;28;20197;-70
2023/06/02 07:19:20;;;;;;;16.87;8.10;;;;;;;;;;5094207;28;20540;-70
2023/06/02 07:21:46;;;;;;;17.80;7.13;;;;;;;;;;5093958;28;20202;-69
2023/06/02 07:24:12;;;;;;;12.87;6.20;;;;;;;;;;5093662;28;20275;-70
2023/06/02 07:26:37;;;;;;;15.93;7.20;;;;;;;;;;5093644;28;20173;-70
2023/06/02 07:29:03;;;;;;;19.83;10.13;;;;;;;;;;5075486;28;20185;-70
2023/06/02 07:31:29;;;;;;;15.77;7.63;;;;;;;;;;5093860;28;20173;-70
2023/06/02 07:33:56;;;;;;;10.37;4.90;;;;;;;;;;5093481;28;20212;-70
2023/06/02 07:36:23;;;;;;;11.07;5.37;;;;;;;;;;5075321;28;20287;-70
2023/06/02 07:38:50;;;;;;;12.57;5.50;;;;;;;;;;5093714;28;20201;-70
2023/06/02 07:41:16;;;;;;;13.97;5.57;;;;;;;;;;5093576;28;20207;-70
2023/06/02 07:43:42;;;;;;;13.33;5.53;;;;;;;;;;5093270;28;20192;-71
2023/06/02 07:46:08;;;;;;;12.37;5.00;;;;;;;;;;5093750;28;20223;-70
2023/06/02 07:48:34;;;;;;;14.60;4.93;;;;;;;;;;5093369;28;20173;-70
2023/06/02 07:51:00;;;;;;;11.67;5.63;;;;;;;;;;5075334;28;20184;-70
2023/06/02 07:53:26;;;;;;;9.87;4.93;;;;;;;;;;5094138;28;20176;-70
2023/06/02 07:55:52;;;;;;;7.90;4.70;;;;;;;;;;5093154;28;20561;-70
2023/06/02 07:58:18;;;;;;;13.63;4.57;;;;;;;;;;5075154;28;20188;-71
2023/06/02 08:00:44;;;;;;;12.53;4.80;;;;;;;;;;5093263;28;20274;-69
2023/06/02 08:03:10;;;;;;;12.23;5.23;;;;;;;;;;5093261;28;20177;-70
2023/06/02 08:05:36;;;;;;;11.80;5.03;;;;;;;;;;5075022;28;20197;-69
2023/06/02 08:08:02;;;;;;;14.77;5.17;;;;;;;;;;5093136;28;20391;-69
2023/06/02 08:10:28;;;;;;;9.47;4.70;;;;;;;;;;5093135;28;20595;-71
2023/06/02 08:12:54;;;;;;;18.73;7.53;;;;;;;;;;5093596;28;20204;-70
2023/06/02 08:15:20;;;;;;;12.17;5.37;;;;;;;;;;5093217;28;20188;-70
2023/06/02 08:17:46;;;;;;;12.00;4.87;;;;;;;;;;5075127;28;20181;-70
2023/06/02 08:20:12;;;;;;;11.00;5.30;;;;;;;;;;5076367;28;20288;-70
2023/06/02 08:22:40;;;;;;;12.33;5.27;;;;;;;;;;5079044;28;20177;-70
2023/06/02 08:25:07;;;;;;;13.93;5.30;;;;;;;;;;5079621;28;20203;-70
2023/06/02 08:27:33;;;;;;;11.57;4.97;;;;;;;;;;5079265;28;20185;-69
2023/06/02 08:29:59;;;;;;;12.23;6.53;;;;;;;;;;5079301;28;20185;-70
2023/06/02 08:32:26;;;;;;;15.27;6.00;;;;;;;;;;5097914;28;20174;-70
2023/06/02 08:34:54;;;;;;;15.67;5.70;;;;;;;;;;5097700;28;20212;-70
2023/06/02 08:37:21;;;;;;;12.10;5.97;;;;;;;;;;5079316;28;20700;-69
2023/06/02 08:39:47;;;;;;;10.67;5.67;;;;;;;;;;5097415;28;20176;-70
2023/06/02 08:42:14;;;;;;;8.00;5.20;;;;;;;;;;5078782;28;20277;-70
2023/06/02 08:44:41;;;;;;;15.17;5.37;;;;;;;;;;5078645;28;20193;-69
2023/06/02 08:47:11;;;;;;;11.83;5.23;;;;;;;;;;5096987;28;20184;-70
2023/06/02 08:49:45;;;;;;;15.47;7.53;;;;;;;;;;5078571;28;20173;-70
2023/06/02 08:52:22;;;;;;;19.53;7.57;;;;;;;;;;5096712;28;20174;-70
2023/06/02 08:54:48;;;;;;;12.97;6.37;;;;;;;;;;5078421;28;20197;-70
2023/06/02 08:57:16;;;;;;;12.07;5.27;;;;;;;;;;5096584;28;20673;-70
2023/06/02 08:59:42;;;;;;;10.43;5.00;;;;;;;;;;5096948;28;20176;-70
2023/06/02 09:02:07;;;;;;;12.97;6.00;;;;;;;;;;5096584;28;20169;-70
2023/06/02 09:04:33;;;;;;;13.07;5.17;;;;;;;;;;5096728;28;20585;-69
2023/06/02 09:07:12;;;;;;;7.93;5.00;;;;;;;;;;5078605;28;20177;-70
2023/06/02 09:09:42;;;;;;;14.40;6.13;;;;;;;;;;5096580;28;20181;-71
2023/06/02 09:12:08;;;;;;;17.80;5.97;;;;;;;;;;5096422;28;20177;-70
2023/06/02 09:14:34;;;;;;;11.47;5.53;;;;;;;;;;5096472;28;20196;-72
2023/06/02 09:17:00;;;;;;;9.47;5.10;;;;;;;;;;5096384;28;20212;-70
2023/06/02 09:19:26;;;;;;;11.83;5.23;;;;;;;;;;5096930;28;20234;-70
2023/06/02 09:21:53;;;;;;;20.30;5.87;;;;;;;;;;5078125;28;20177;-70
2023/06/02 09:24:32;;;;;;;12.67;5.33;;;;;;;;;;5096266;28;20234;-71
2023/06/02 09:26:58;;;;;;;11.33;5.00;;;;;;;;;;5078042;28;20529;-70
2023/06/02 09:29:24;;;;;;;11.63;5.37;;;;;;;;;;5078119;28;20750;-70
2023/06/02 09:31:52;;;;;;;15.37;6.07;;;;;;;;;;5094790;28;20205;-69
2023/06/02 09:34:18;;;;;;;8.40;5.83;;;;;;;;;;5095983;28;20720;-69
2023/06/02 09:36:46;;;;;;;12.30;6.07;;;;;;;;;;5096213;28;20207;-69
2023/06/02 09:39:12;;;;;;;11.53;5.93;;;;;;;;;;5077747;28;20181;-69
2023/06/02 09:41:39;;;;;;;15.07;6.37;;;;;;;;;;5096451;28;20180;-69
2023/06/02 09:44:14;;;;;;;12.63;6.43;;;;;;;;;;5077967;28;20231;-69
2023/06/02 09:46:41;;;;;;;15.67;6.70;;;;;;;;;;5096855;28;20176;-70
2023/06/02 09:49:08;;;;;;;16.17;6.40;;;;;;;;;;5079657;28;20180;-72
2023/06/02 09:51:36;;;;;;;12.73;6.27;;;;;;;;;;5098799;28;20521;-72
2023/06/02 09:54:03;;;;;;;18.17;7.33;;;;;;;;;;5087808;28;20212;-73
2023/06/02 09:56:33;;;;;;;15.40;8.30;;;;;;;;;;5087244;28;20197;-69
2023/06/02 09:58:59;;;;;;;16.90;8.40;;;;;;;;;;5096320;28;20145;-69
2023/06/02 10:01:26;;;;;;;19.47;8.10;;;;;;;;;;5095922;28;20177;-69
2023/06/02 10:03:52;;;;;;;11.20;7.63;;;;;;;;;;5077701;28;20219;-69
2023/06/02 10:06:27;;;;;;;19.77;8.30;;;;;;;;;;5095841;28;20689;-69
2023/06/02 10:09:03;;;;;;;14.67;7.67;;;;;;;;;;5077344;28;20548;-69
2023/06/02 10:11:32;;;;;;;11.77;6.87;;;;;;;;;;5077557;28;20668;-69
2023/06/02 10:14:17;;;;;;;11.23;7.43;;;;;;;;;;5077186;28;20318;-69
2023/06/02 10:16:51;;;;;;;13.20;7.63;;;;;;;;;;5095060;28;20193;-69
2023/06/02 10:19:17;;;;;;;16.47;7.47;;;;;;;;;;5077190;28;20177;-70
2023/06/02 10:22:02;;;;;;;14.00;7.90;;;;;;;;;;5095302;28;20177;-69
2023/06/02 10:24:42;;;;;;;10.40;6.53;;;;;;;;;;5094880;28;20280;-70
2023/06/02 10:27:24;;;;;;;19.07;7.13;;;;;;;;;;5095507;28;20169;-70
2023/06/02 10:29:54;;;;;;;16.20;6.00;;;;;;;;;;5077114;28;20173;-71
2023/06/02 10:32:27;;;;;;;16.77;6.30;;;;;;;;;;5076815;28;20185;-69
2023/06/02 10:34:56;;;;;;;11.63;5.93;;;;;;;;;;5076488;28;20720;-70
2023/06/02 10:37:23;;;;;;;12.90;6.43;;;;;;;;;;5076923;28;20227;-70
2023/06/02 10:39:51;;;;;;;12.57;6.00;;;;;;;;;;5076521;28;20564;-70
2023/06/02 10:42:18;;;;;;;14.40;6.87;;;;;;;;;;5076391;28;20181;-69
2023/06/02 10:44:44;;;;;;;15.00;7.10;;;;;;;;;;5076244;28;20197;-70
2023/06/02 10:47:19;;;;;;;11.30;7.03;;;;;;;;;;5076494;28;20177;-70
2023/06/02 10:49:51;;;;;;;14.30;6.90;;;;;;;;;;5076441;28;20271;-70
2023/06/02 10:52:17;;;;;;;11.30;6.70;;;;;;;;;;5076689;28;20238;-70
2023/06/02 10:54:43;;;;;;;13.07;6.13;;;;;;;;;;5076266;28;20209;-70
2023/06/02 10:57:11;;;;;;;9.03;5.50;;;;;;;;;;5095402;28;20201;-69
2023/06/02 10:59:37;;;;;;;11.67;6.07;;;;;;;;;;5094668;28;20214;-71
2023/06/02 11:02:04;;;;;;;12.03;5.90;;;;;;;;;;5094611;28;20173;-70
2023/06/02 11:04:31;;;;;;;11.13;6.63;;;;;;;;;;5094402;28;20323;-70
2023/06/02 11:07:17;;;;;;;13.03;6.57;;;;;;;;;;5076064;28;20177;-69
2023/06/02 11:09:43;;;;;;;13.20;6.43;;;;;;;;;;5076029;28;20185;-70
2023/06/02 11:12:10;;;;;;;10.13;6.20;;;;;;;;;;5075976;28;20192;-70
2023/06/02 11:14:55;;;;;;;13.20;6.37;;;;;;;;;;5075799;28;20208;-70
2023/06/02 11:17:30;;;;;;;10.10;6.10;;;;;;;;;;5095013;28;20207;-69
2023/06/02 11:19:57;;;;;;;13.10;6.90;;;;;;;;;;5077036;28;20267;-70
2023/06/02 11:22:23;;;;;;;15.33;7.40;;;;;;;;;;5094416;28;20660;-69
2023/06/02 11:24:52;;;;;;;14.80;6.73;;;;;;;;;;5094386;28;20262;-69
2023/06/02 11:27:18;;;;;;;12.47;6.83;;;;;;;;;;5075811;28;20181;-70
2023/06/02 11:29:44;;;;;;;9.97;5.53;;;;;;;;;;5093795;28;20177;-71
2023/06/02 11:32:19;;;;;;;11.23;5.97;;;;;;;;;;5094099;28;20177;-70
2023/06/02 11:34:45;;;;;;;14.53;6.83;;;;;;;;;;5075494;28;20265;-69
2023/06/02 11:37:13;;;;;;;9.63;6.30;;;;;;;;;;5075569;28;20197;-70
2023/06/02 11:39:52;;;;;;;14.97;5.63;;;;;;;;;;5093829;28;20704;-70
2023/06/02 11:42:18;;;;;;;10.50;6.33;;;;;;;;;;5093734;28;20176;-70
2023/06/02 11:44:50;;;;;;;15.83;6.30;;;;;;;;;;5093376;28;20195;-70
2023/06/02 11:47:20;;;;;;;13.00;5.60;;;;;;;;;;5093484;28;20257;-69
2023/06/02 11:49:47;;;;;;;11.90;6.80;;;;;;;;;;5093473;28;20201;-69
2023/06/02 11:52:13;;;;;;;13.33;7.33;;;;;;;;;;5075276;28;20242;-70
2023/06/02 11:54:54;;;;;;;14.23;6.20;;;;;;;;;;5074350;28;20263;-70
2023/06/02 11:57:33;;;;;;;12.50;6.37;;;;;;;;;;5075147;28;20680;-70
2023/06/02 12:00:09;;;;;;;18.50;6.33;;;;;;;;;;5075127;28;20268;-70
2023/06/02 12:02:48;;;;;;;11.83;5.90;;;;;;;;;;5093552;28;20169;-70
2023/06/02 12:05:30;;;;;;;10.57;5.67;;;;;;;;;;5075266;28;20197;-70
2023/06/02 12:07:56;;;;;;;15.83;6.10;;;;;;;;;;5075235;28;20191;-70
2023/06/02 12:10:22;;;;;;;13.80;6.00;;;;;;;;;;5093606;28;20602;-70
2023/06/02 12:12:48;;;;;;;16.47;6.90;;;;;;;;;;5093757;28;20206;-70
2023/06/02 12:15:15;;;;;;;15.63;6.03;;;;;;;;;;5074943;28;20205;-70
2023/06/02 12:17:42;;;;;;;12.93;5.57;;;;;;;;;;5093088;28;20199;-70
2023/06/02 12:20:08;;;;;;;10.97;5.20;;;;;;;;;;5075046;28;20230;-70
2023/06/02 12:22:34;;;;;;;11.03;5.87;;;;;;;;;;5093415;28;20178;-70
2023/06/02 12:25:13;;;;;;;13.07;5.37;;;;;;;;;;5074999;28;20200;-70
2023/06/02 12:27:39;;;;;;;11.20;5.00;;;;;;;;;;5075142;28;20188;-70
2023/06/02 12:30:06;;;;;;;14.27;5.30;;;;;;;;;;5074968;28;20191;-70
2023/06/02 12:32:32;;;;;;;16.63;5.57;;;;;;;;;;5074825;28;20647;-70
2023/06/02 12:34:58;;;;;;;17.60;5.47;;;;;;;;;;5074722;28;20763;-70
2023/06/02 12:37:24;;;;;;;10.97;5.53;;;;;;;;;;5093162;28;20201;-69
2023/06/02 12:39:50;;;;;;;12.13;5.20;;;;;;;;;;5075284;28;20181;-70
2023/06/02 12:42:18;;;;;;;14.03;5.20;;;;;;;;;;5075490;28;20188;-69
2023/06/02 12:44:44;;;;;;;12.03;4.63;;;;;;;;;;5075606;28;20201;-69
2023/06/02 12:47:10;;;;;;;18.73;5.13;;;;;;;;;;5093644;28;20177;-71
2023/06/02 12:49:37;;;;;;;15.70;6.40;;;;;;;;;;5075177;28;20212;-69
2023/06/02 12:52:04;;;;;;;12.20;5.57;;;;;;;;;;5074964;28;20669;-70
2023/06/02 12:54:30;;;;;;;15.03;5.60;;;;;;;;;;5092949;28;20224;-70
2023/06/02 12:56:56;;;;;;;11.27;5.23;;;;;;;;;;5092994;28;20666;-70
2023/06/02 12:59:21;;;;;;;9.60;4.93;;;;;;;;;;5093705;28;20612;-71
2023/06/02 13:01:47;;;;;;;11.17;4.90;;;;;;;;;;5093699;28;20184;-71
2023/06/02 13:04:14;;;;;;;11.73;4.80;;;;;;;;;;5093108;28;20697;-70
2023/06/02 13:06:40;;;;;;;11.00;4.43;;;;;;;;;;5094743;28;20204;-70
2023/06/02 13:09:06;;;;;;;11.77;5.30;;;;;;;;;;5096707;28;20182;-70
2023/06/02 13:11:32;;;;;;;16.20;5.77;;;;;;;;;;5078448;28;20204;-70
2023/06/02 13:13:58;;;;;;;11.80;5.00;;;;;;;;;;5078206;28;20678;-69
2023/06/02 13:16:25;;;;;;;12.97;5.17;;;;;;;;;;5096426;28;20204;-70
2023/06/02 13:18:52;;;;;;;9.90;4.90;;;;;;;;;;5096435;28;20174;-70
2023/06/02 13:21:18;;;;;;;13.53;5.20;;;;;;;;;;5096643;28;20554;-70
2023/06/02 13:23:54;;;;;;;9.30;4.50;;;;;;;;;;5096287;28;20180;-70
2023/06/02 13:26:20;;;;;;;10.93;4.27;;;;;;;;;;5096776;28;20187;-70
2023/06/02 13:28:46;;;;;;;8.03;3.43;;;;;;;;;;5096508;28;20181;-71
2023/06/02 13:31:12;;;;;;;8.23;3.80;;;;;;;;;;5095869;28;20231;-76
2023/06/02 13:33:38;;;;;;;11.03;4.00;;;;;;;;;;5096109;28;20264;-70
2023/06/02 13:36:04;;;;;;;9.83;4.20;;;;;;;;;;5095929;28;20292;-70
2023/06/02 13:38:30;;;;;;;9.48;4.43;;;;;;;;;;5076495;28;20436;-70
2023/06/02 13:40:58;;;;;;;7.90;4.03;;;;;;;;;;5095876;28;20643;-70
2023/06/02 13:43:24;;;;;;;9.60;4.60;;;;;;;;;;5096304;28;20177;-70
2023/06/02 13:45:50;;;;;;;12.80;4.20;;;;;;;;;;5077879;28;20247;-70
2023/06/02 13:48:16;;;;;;;9.33;3.93;;;;;;;;;;5095597;28;20654;-70
2023/06/02 13:50:42;;;;;;;10.73;4.60;;;;;;;;;;5077714;28;20177;-70
2023/06/02 13:53:08;;;;;;;10.23;4.43;;;;;;;;;;5095834;28;20216;-70
2023/06/02 13:55:34;;;;;;;13.87;5.97;;;;;;;;;;5095630;28;20201;-70
2023/06/02 13:58:00;;;;;;;10.40;4.63;;;;;;;;;;5077372;28;20188;-70
2023/06/02 14:00:26;;;;;;;8.83;4.50;;;;;;;;;;5077460;28;20267;-70
2023/06/02 14:02:52;;;;;;;8.17;4.00;;;;;;;;;;5095595;28;20219;-70
2023/06/02 14:05:18;;;;;;;11.37;4.23;;;;;;;;;;5077025;28;20225;-72
2023/06/02 14:07:44;;;;;;;8.80;4.17;;;;;;;;;;5077032;28;20564;-70
2023/06/02 14:10:10;;;;;;;12.97;3.67;;;;;;;;;;5077910;28;20213;-70
2023/06/02 14:12:36;;;;;;;11.15;4.68;;;;;;;;;;5094587;28;20374;-70
2023/06/02 14:15:02;;;;;;;13.97;4.50;;;;;;;;;;5076980;28;20193;-70
2023/06/02 14:17:28;;;;;;;11.67;4.73;;;;;;;;;;5094353;28;20203;-70
2023/06/02 14:19:54;;;;;;;14.63;4.17;;;;;;;;;;5095103;28;20173;-70
2023/06/02 14:22:20;;;;;;;11.10;3.50;;;;;;;;;;5076881;28;20302;-70
2023/06/02 14:24:46;;;;;;;15.63;4.47;;;;;;;;;;5095597;28;20200;-70
2023/06/02 14:27:12;;;;;;;12.20;4.50;;;;;;;;;;5096493;28;20173;-69
2023/06/02 14:29:38;;;;;;;10.87;3.93;;;;;;;;;;5078131;28;20173;-70
2023/06/02 14:32:04;;;;;;;12.13;4.50;;;;;;;;;;5096080;28;20185;-70